Time;durP1;ratioP1;P1;durP2;ratioP2;P2;SDS_P1;SDS_P2;PMS_P1;PMS_P2;Temp;Humidity;BMP_temperature;BMP_pressure;BME280_temperature;BME280_humidity;BME280_pressure;Samples;Min_cycle;Max_cycle;Signal;HPM_P1;HPM_P2
2023/01/16 00:02:00;;;;;;;81.40;45.20;;;;;;;7.57;58.41;101223.53;5111334;27;20851;-76
2023/01/16 00:04:27;;;;;;;39.08;27.85;;;;;;;7.39;58.52;101216.28;5110957;28;20460;-75
2023/01/16 00:06:53;;;;;;;39.30;25.55;;;;;;;7.30;58.94;101217.13;5112159;28;20437;-75
2023/01/16 00:09:19;;;;;;;42.25;27.75;;;;;;;7.29;59.20;101212.78;5111655;28;20378;-75
2023/01/16 00:11:45;;;;;;;34.30;20.27;;;;;;;7.33;58.89;101208.94;5102986;28;20897;-76
2023/01/16 00:14:11;;;;;;;33.20;19.67;;;;;;;7.22;59.07;101206.41;5111412;28;20386;-76
2023/01/16 00:16:36;;;;;;;30.10;20.07;;;;;;;7.30;58.75;101211.84;5110497;28;20372;-76
2023/01/16 00:19:02;;;;;;;33.10;20.10;;;;;;;7.37;58.55;101214.78;5110692;28;20383;-76
2023/01/16 00:21:28;;;;;;;33.35;20.05;;;;;;;7.41;58.26;101211.72;5111403;28;20383;-76
2023/01/16 00:23:55;;;;;;;42.70;30.45;;;;;;;7.50;57.88;101203.94;5109546;28;20392;-76
2023/01/16 00:26:20;;;;;;;32.60;21.88;;;;;;;7.49;57.60;101197.00;5110789;28;20394;-75
2023/01/16 00:28:46;;;;;;;32.65;21.10;;;;;;;7.48;57.80;101190.91;5110630;28;20416;-76
2023/01/16 00:31:11;;;;;;;33.72;20.70;;;;;;;7.40;57.99;101186.31;5110559;28;20890;-76
2023/01/16 00:33:39;;;;;;;31.52;20.08;;;;;;;7.36;58.28;101190.19;5109186;28;20395;-75
2023/01/16 00:36:04;;;;;;;38.93;23.87;;;;;;;7.32;58.13;101182.69;5110915;28;20470;-75
2023/01/16 00:38:32;;;;;;;56.70;35.85;;;;;;;7.35;58.14;101191.16;5111047;28;20763;-75
2023/01/16 00:40:57;;;;;;;43.87;28.50;;;;;;;7.31;57.94;101196.84;5109621;28;20387;-75
2023/01/16 00:43:23;;;;;;;36.60;23.57;;;;;;;7.19;58.16;101194.31;5109197;28;20457;-75
2023/01/16 00:45:49;;;;;;;37.47;22.97;;;;;;;7.06;58.38;101191.94;5110605;28;20383;-75
2023/01/16 00:48:15;;;;;;;33.17;21.60;;;;;;;6.97;58.95;101191.91;5110139;28;20479;-75
2023/01/16 00:50:40;;;;;;;38.93;22.93;;;;;;;6.94;58.86;101184.28;5110806;28;20793;-75
2023/01/16 00:53:06;;;;;;;38.37;21.87;;;;;;;6.96;59.17;101175.25;5109757;28;20383;-74
2023/01/16 00:55:36;;;;;;;52.95;27.23;;;;;;;7.02;59.14;101173.88;5109018;28;20379;-75
2023/01/16 00:58:03;;;;;;;47.88;25.58;;;;;;;7.05;58.96;101171.81;5110560;28;20390;-75
2023/01/16 01:00:30;;;;;;;44.03;24.75;;;;;;;7.04;58.76;101156.97;5114230;28;20383;-74
2023/01/16 01:02:55;;;;;;;42.13;24.70;;;;;;;7.11;58.46;101164.34;5110701;28;20400;-75
2023/01/16 01:05:21;;;;;;;46.50;25.63;;;;;;;7.12;58.35;101161.56;5095520;28;20480;-75
2023/01/16 01:07:46;;;;;;;49.83;28.63;;;;;;;7.07;58.26;101159.31;5110114;28;20427;-75
2023/01/16 01:10:12;;;;;;;49.00;28.13;;;;;;;6.94;58.65;101150.03;5110358;28;20725;-75
2023/01/16 01:12:37;;;;;;;45.73;25.63;;;;;;;6.99;58.66;101147.81;5110280;28;20387;-75
2023/01/16 01:15:03;;;;;;;52.70;28.60;;;;;;;7.00;58.55;101152.94;5110438;28;20427;-75
2023/01/16 01:17:29;;;;;;;43.80;24.02;;;;;;;6.87;58.75;101155.81;5113847;28;20388;-74
2023/01/16 01:19:54;;;;;;;37.60;22.43;;;;;;;6.67;59.87;101147.03;5112039;28;20456;-75
2023/01/16 01:22:20;;;;;;;38.83;23.40;;;;;;;6.76;59.22;101141.94;5110206;28;20379;-76
2023/01/16 01:24:49;;;;;;;36.60;21.33;;;;;;;6.86;58.97;101148.03;5109609;28;20407;-75
2023/01/16 01:27:17;;;;;;;38.90;22.67;;;;;;;6.80;59.35;101145.97;5105122;28;20427;-75
2023/01/16 01:29:43;;;;;;;47.08;27.13;;;;;;;6.80;59.19;101141.50;5109184;28;20403;-74
2023/01/16 01:32:08;;;;;;;51.25;29.33;;;;;;;6.94;58.93;101136.84;5110243;28;20398;-75
2023/01/16 01:34:34;;;;;;;43.10;24.27;;;;;;;6.98;58.70;101136.44;5110139;28;20409;-75
2023/01/16 01:37:05;;;;;;;35.20;21.50;;;;;;;6.98;58.70;101140.88;5110267;28;20375;-75
2023/01/16 01:39:30;;;;;;;37.67;22.65;;;;;;;7.01;58.85;101130.88;5109567;28;20867;-75
2023/01/16 01:42:42;;;;;;;37.83;22.43;;;;;;;6.96;59.17;101137.53;5109855;28;20401;-75
2023/01/16 01:44:41;;;;;;;33.67;19.88;;;;;;;7.04;58.98;101129.78;5109794;28;20498;-75
2023/01/16 01:47:07;;;;;;;38.27;22.10;;;;;;;7.11;58.66;101117.72;5108789;28;20816;-75
2023/01/16 01:49:33;;;;;;;29.30;18.98;;;;;;;7.15;58.33;101105.94;5109509;28;20484;-75
2023/01/16 01:52:03;;;;;;;32.60;20.10;;;;;;;7.09;59.04;101103.84;5110108;28;20383;-75
2023/01/16 01:54:37;;;;;;;33.75;21.05;;;;;;;7.14;58.56;101088.44;5109965;28;20360;-75
2023/01/16 01:57:14;;;;;;;35.60;21.80;;;;;;;7.15;58.49;101074.31;5110198;28;20407;-74
2023/01/16 01:59:45;;;;;;;38.88;22.60;;;;;;;7.15;58.38;101074.31;5109591;28;20490;-75
2023/01/16 02:02:18;;;;;;;37.10;22.15;;;;;;;7.07;58.42;101059.16;5111834;28;20463;-74
2023/01/16 02:04:46;;;;;;;37.85;21.77;;;;;;;7.06;58.81;101069.88;5112624;28;20406;-74
2023/01/16 02:07:15;;;;;;;35.63;21.30;;;;;;;7.08;58.65;101068.75;5113823;28;20372;-74
2023/01/16 02:09:41;;;;;;;34.95;22.17;;;;;;;7.08;58.64;101060.84;5114076;28;20382;-75
2023/01/16 02:12:13;;;;;;;36.15;22.35;;;;;;;7.17;58.71;101067.09;5113274;28;20724;-75
2023/01/16 02:14:42;;;;;;;36.30;23.90;;;;;;;7.09;58.59;101066.94;5113206;27;20390;-76
2023/01/16 02:20:13;;;;;;;36.28;23.00;;;;;;;6.97;59.03;101047.81;5113462;28;20488;-77
2023/01/16 02:23:04;;;;;;;34.28;21.45;;;;;;;6.93;59.15;101051.66;5112779;28;20848;-75
2023/01/16 02:25:48;;;;;;;34.17;21.63;;;;;;;7.04;58.97;101046.28;5113149;28;20474;-75
2023/01/16 02:28:43;;;;;;;33.13;21.42;;;;;;;7.02;59.21;101024.50;5112126;28;20414;-75
2023/01/16 02:31:36;;;;;;;34.33;22.20;;;;;;;6.83;59.63;101020.03;5105387;28;20395;-75
2023/01/16 02:34:11;;;;;;;43.50;29.70;;;;;;;6.78;59.69;101016.16;5112904;28;20383;-75
2023/01/16 02:36:36;;;;;;;40.30;26.23;;;;;;;6.65;60.04;101021.69;5112485;28;20399;-74
2023/01/16 02:39:46;;;;;;;41.00;26.90;;;;;;;6.62;60.11;101025.41;5113418;28;20387;-74
2023/01/16 02:42:18;;;;;;;41.83;26.47;;;;;;;6.70;59.87;101027.38;5092435;28;20478;-74
2023/01/16 02:44:49;;;;;;;37.50;24.48;;;;;;;6.74;59.65;101031.41;5112259;28;20443;-75
2023/01/16 02:47:26;;;;;;;37.23;23.63;;;;;;;6.74;59.95;101018.25;5114399;28;20419;-74
2023/01/16 02:50:00;;;;;;;35.63;23.33;;;;;;;6.67;60.17;101023.22;5113848;28;20560;-74
2023/01/16 02:52:40;;;;;;;34.60;22.23;;;;;;;6.61;60.10;101017.66;5112506;28;20467;-74
2023/01/16 02:55:37;;;;;;;37.08;22.50;;;;;;;6.48;60.55;101012.63;5113078;28;20440;-75
2023/01/16 02:58:05;;;;;;;34.25;21.25;;;;;;;6.48;60.49;101020.53;5111883;28;20853;-75
2023/01/16 03:00:31;;;;;;;36.15;21.90;;;;;;;6.58;60.36;101021.41;5112717;28;20395;-74
2023/01/16 03:02:58;;;;;;;34.67;21.10;;;;;;;6.58;60.38;101010.03;5111722;28;20477;-75
2023/01/16 03:05:24;;;;;;;35.28;20.95;;;;;;;6.62;60.66;101014.06;5116204;28;20379;-74
2023/01/16 03:08:04;;;;;;;38.17;24.27;;;;;;;6.77;59.94;101017.97;5114107;28;20390;-76
2023/01/16 03:11:24;;;;;;;32.15;18.92;;;;;;;6.69;60.15;101010.72;5111627;28;20958;-74
2023/01/16 03:13:55;;;;;;;28.20;18.40;;;;;;;6.49;60.95;100995.88;5030024;28;20405;-75
2023/01/16 03:16:38;;;;;;;32.38;19.67;;;;;;;6.39;61.42;100995.88;5098287;28;20434;-75
2023/01/16 03:19:42;;;;;;;32.70;19.85;;;;;;;6.40;61.46;100988.81;5104599;28;20475;-75
2023/01/16 03:22:11;;;;;;;30.48;18.83;;;;;;;6.46;61.13;100985.63;5112786;28;20383;-75
2023/01/16 03:24:48;;;;;;;33.50;19.50;;;;;;;6.48;61.04;100989.78;5111189;28;20400;-75
2023/01/16 03:27:33;;;;;;;31.90;19.63;;;;;;;6.59;60.90;100991.47;5112544;28;21129;-76
2023/01/16 03:30:20;;;;;;;30.15;18.55;;;;;;;6.47;61.10;101001.28;5111469;28;20422;-75
2023/01/16 03:32:54;;;;;;;32.45;19.30;;;;;;;6.60;61.17;100992.28;5112089;28;20745;-74
2023/01/16 03:35:21;;;;;;;32.47;18.73;;;;;;;6.70;60.65;100986.06;5112085;28;20376;-75
2023/01/16 03:37:54;;;;;;;32.10;20.05;;;;;;;6.64;60.92;100977.88;5111901;28;20889;-74
2023/01/16 03:40:28;;;;;;;33.10;20.42;;;;;;;6.68;60.59;100979.25;5111621;28;20880;-75
2023/01/16 03:43:25;;;;;;;34.85;20.70;;;;;;;6.66;61.00;100984.69;5111726;28;20407;-74
2023/01/16 03:46:04;;;;;;;34.17;20.53;;;;;;;6.50;61.05;100987.84;5111107;28;20394;-74
2023/01/16 03:48:50;;;;;;;33.80;20.77;;;;;;;6.32;61.37;100986.84;5111332;28;20392;-74
2023/01/16 03:51:22;;;;;;;36.23;20.87;;;;;;;6.34;61.34;100979.66;5105270;28;20404;-74
2023/01/16 03:53:57;;;;;;;32.90;20.10;;;;;;;6.26;61.71;100985.56;5111225;28;20395;-74
2023/01/16 03:56:49;;;;;;;32.53;20.60;;;;;;;6.14;62.08;100984.03;5111833;28;20379;-75
2023/01/16 03:59:16;;;;;;;29.60;19.13;;;;;;;6.15;62.06;100975.16;5110142;28;20445;-75
2023/01/16 04:02:08;;;;;;;31.60;19.70;;;;;;;6.23;62.07;100964.81;5109856;28;20387;-75
2023/01/16 04:04:45;;;;;;;29.37;19.33;;;;;;;6.31;61.77;100959.69;5107402;28;20933;-74
2023/01/16 04:07:35;;;;;;;34.67;20.98;;;;;;;6.41;61.59;100943.91;5111654;28;20815;-75
2023/01/16 04:10:11;;;;;;;30.00;19.02;;;;;;;6.32;61.54;100937.66;5112236;28;20390;-75
2023/01/16 04:12:52;;;;;;;29.50;19.03;;;;;;;6.34;61.81;100937.53;5110962;28;20927;-74
2023/01/16 04:15:19;;;;;;;31.23;18.52;;;;;;;6.40;61.17;100942.22;5111714;28;20412;-74
2023/01/16 04:17:45;;;;;;;32.05;19.13;;;;;;;6.38;61.29;100951.25;5111099;28;20753;-74
2023/01/16 04:20:11;;;;;;;30.15;18.63;;;;;;;6.39;61.48;100956.38;5111461;28;20505;-74
2023/01/16 04:22:37;;;;;;;30.60;19.77;;;;;;;6.36;61.46;100963.72;5111420;28;20383;-75
2023/01/16 04:25:08;;;;;;;29.10;19.08;;;;;;;6.43;61.31;100960.41;5111694;28;20744;-75
2023/01/16 04:27:34;;;;;;;33.45;19.48;;;;;;;6.49;61.19;100957.22;5111206;28;20376;-75
2023/01/16 04:29:59;;;;;;;31.55;18.75;;;;;;;6.61;60.76;100962.34;5109699;28;20404;-75
2023/01/16 04:32:25;;;;;;;30.40;19.40;;;;;;;6.56;60.82;100961.94;5110044;28;20861;-74
2023/01/16 04:34:50;;;;;;;29.27;18.67;;;;;;;6.49;60.66;100961.66;5110396;28;20380;-74
2023/01/16 04:37:18;;;;;;;25.77;17.20;;;;;;;6.43;61.30;100959.56;5113906;28;20391;-74
2023/01/16 04:39:44;;;;;;;29.70;18.47;;;;;;;6.32;61.34;100948.19;5107501;28;20878;-75
2023/01/16 04:42:10;;;;;;;28.48;18.42;;;;;;;6.43;61.09;100947.22;5099076;28;20383;-75
2023/01/16 04:44:35;;;;;;;28.15;19.25;;;;;;;6.50;61.13;100937.81;5103532;28;20868;-75
2023/01/16 04:47:01;;;;;;;28.67;19.40;;;;;;;6.58;60.67;100938.94;5110451;28;20387;-75
2023/01/16 04:49:27;;;;;;;31.25;19.45;;;;;;;6.41;60.78;100935.16;5111109;28;20372;-75
2023/01/16 04:51:52;;;;;;;28.90;19.10;;;;;;;6.32;61.16;100932.41;5111224;28;20694;-75
2023/01/16 04:54:19;;;;;;;29.50;19.33;;;;;;;6.26;60.97;100943.44;5113875;28;20756;-75
2023/01/16 04:56:45;;;;;;;29.20;19.23;;;;;;;6.21;61.35;100932.53;5111285;28;20470;-75
2023/01/16 04:59:12;;;;;;;28.43;19.17;;;;;;;6.25;61.57;100940.97;5109569;28;20747;-74
2023/01/16 05:01:39;;;;;;;31.73;20.67;;;;;;;6.22;61.06;100944.69;5106102;28;20406;-74
2023/01/16 05:04:05;;;;;;;29.48;17.60;;;;;;;6.20;61.32;100941.38;5109095;28;20395;-76
2023/01/16 05:06:32;;;;;;;27.58;17.50;;;;;;;6.04;61.40;100938.44;5109626;28;20452;-75
2023/01/16 05:08:58;;;;;;;28.92;18.33;;;;;;;5.91;61.83;100928.13;5109105;28;20836;-75
2023/01/16 05:11:23;;;;;;;26.42;17.75;;;;;;;5.91;61.89;100917.59;5109370;28;20395;-76
2023/01/16 05:13:49;;;;;;;27.53;17.67;;;;;;;5.96;62.04;100925.97;5108985;28;20406;-75
2023/01/16 05:16:14;;;;;;;28.03;17.73;;;;;;;5.90;62.24;100914.13;5107069;28;20392;-75
2023/01/16 05:18:40;;;;;;;30.00;17.90;;;;;;;5.96;62.12;100917.22;5109441;28;20397;-75
2023/01/16 05:21:05;;;;;;;28.90;18.70;;;;;;;5.96;62.17;100931.22;5114608;28;20384;-75
2023/01/16 05:23:36;;;;;;;28.67;17.83;;;;;;;5.88;62.18;100918.69;5118387;28;20395;-74
2023/01/16 05:26:03;;;;;;;31.60;18.55;;;;;;;5.91;62.21;100910.53;5114036;28;20858;-75
2023/01/16 05:28:28;;;;;;;29.42;19.52;;;;;;;6.01;62.30;100913.19;5114691;28;20433;-74
2023/01/16 05:30:54;;;;;;;28.43;17.77;;;;;;;5.99;62.02;100923.03;5116207;28;20375;-74
2023/01/16 05:33:19;;;;;;;30.20;18.43;;;;;;;5.86;62.30;100915.34;5116128;28;20380;-74
2023/01/16 05:35:46;;;;;;;29.65;18.42;;;;;;;5.71;62.76;100914.91;5112816;28;20387;-74
2023/01/16 05:38:12;;;;;;;29.10;18.10;;;;;;;5.70;62.93;100920.31;5113226;28;20399;-75
2023/01/16 05:40:37;;;;;;;31.77;19.52;;;;;;;5.72;62.97;100906.03;5112545;28;20382;-74
2023/01/16 05:43:03;;;;;;;30.73;18.03;;;;;;;5.82;62.68;100918.41;5108035;28;20407;-74
2023/01/16 05:45:29;;;;;;;30.43;19.13;;;;;;;5.81;62.83;100906.22;5113299;28;20459;-75
2023/01/16 05:47:54;;;;;;;31.23;18.63;;;;;;;5.75;63.29;100905.78;5105147;28;20482;-75
2023/01/16 05:50:20;;;;;;;29.60;17.73;;;;;;;5.80;63.01;100904.53;5103012;28;20494;-75
2023/01/16 05:52:45;;;;;;;29.33;17.88;;;;;;;5.82;62.94;100905.25;5110214;28;20392;-75
2023/01/16 05:55:11;;;;;;;32.20;20.70;;;;;;;5.73;63.26;100899.00;5112541;28;20394;-75
2023/01/16 05:57:36;;;;;;;34.53;20.53;;;;;;;5.72;63.46;100898.13;5112489;28;20411;-74
2023/01/16 06:00:03;;;;;;;28.25;17.77;;;;;;;5.85;62.85;100905.81;5107379;28;20742;-75
2023/01/16 06:02:29;;;;;;;27.73;16.63;;;;;;;5.73;62.81;100905.09;5100413;28;20374;-74
2023/01/16 06:04:55;;;;;;;26.73;16.35;;;;;;;5.73;62.97;100899.81;5106160;28;20462;-76
2023/01/16 06:07:20;;;;;;;27.88;17.13;;;;;;;5.66;63.07;100905.75;5107928;28;20385;-75
2023/01/16 06:09:46;;;;;;;33.43;18.70;;;;;;;5.63;63.13;100903.38;5114180;28;20387;-75
2023/01/16 06:12:17;;;;;;;29.98;17.45;;;;;;;5.66;63.46;100901.31;5113438;28;20789;-76
2023/01/16 06:14:43;;;;;;;30.25;18.17;;;;;;;5.79;62.78;100906.34;5112555;28;20699;-76
2023/01/16 06:17:09;;;;;;;29.55;18.17;;;;;;;5.77;62.47;100905.66;5112886;28;20728;-74
2023/01/16 06:19:35;;;;;;;36.17;21.48;;;;;;;5.67;63.40;100904.78;5113295;28;20388;-74
2023/01/16 06:22:00;;;;;;;31.38;17.77;;;;;;;5.59;63.37;100902.81;5113014;28;20464;-75
2023/01/16 06:24:26;;;;;;;32.23;18.03;;;;;;;5.53;63.16;100892.84;5115168;28;20752;-74
2023/01/16 06:26:51;;;;;;;32.23;17.13;;;;;;;5.68;63.04;100895.94;5114475;28;20379;-75
2023/01/16 06:29:17;;;;;;;34.70;17.75;;;;;;;5.59;63.44;100889.66;5112826;28;20395;-75
2023/01/16 06:31:42;;;;;;;28.07;16.50;;;;;;;5.58;63.57;100892.44;5113147;28;20391;-75
2023/01/16 06:34:08;;;;;;;32.27;17.50;;;;;;;5.49;63.49;100900.16;5109378;28;20375;-76
2023/01/16 06:36:34;;;;;;;30.10;17.93;;;;;;;5.53;63.65;100893.66;5112167;28;20390;-74
2023/01/16 06:38:59;;;;;;;29.93;17.23;;;;;;;5.79;62.94;100911.59;5111315;28;20728;-75
2023/01/16 06:41:25;;;;;;;29.10;16.23;;;;;;;5.85;62.83;100897.94;5112571;28;20421;-75
2023/01/16 06:43:50;;;;;;;34.37;18.17;;;;;;;5.76;62.97;100901.34;5113224;28;20756;-77
2023/01/16 06:46:16;;;;;;;33.17;18.30;;;;;;;5.81;62.82;100895.69;5111223;28;20389;-75
2023/01/16 06:48:41;;;;;;;27.97;15.30;;;;;;;5.67;62.92;100892.47;5111493;27;20763;-75
2023/01/16 06:51:09;;;;;;;28.20;16.05;;;;;;;5.62;63.17;100891.19;5110244;28;20867;-75
2023/01/16 06:53:35;;;;;;;27.65;15.45;;;;;;;5.51;63.37;100889.47;5109197;28;20383;-75
2023/01/16 06:56:00;;;;;;;29.67;15.63;;;;;;;5.51;63.86;100885.09;5111399;28;20398;-75
2023/01/16 06:58:26;;;;;;;30.48;17.02;;;;;;;5.57;63.63;100894.22;5109914;28;20390;-76
2023/01/16 07:00:51;;;;;;;27.13;15.90;;;;;;;5.70;63.25;100892.19;5111059;28;20375;-75
2023/01/16 07:03:17;;;;;;;28.80;17.10;;;;;;;5.81;62.53;100886.00;5110575;28;20468;-75
2023/01/16 07:05:44;;;;;;;32.53;17.77;;;;;;;5.82;63.03;100879.78;5110566;28;20387;-75
2023/01/16 07:08:09;;;;;;;28.95;16.65;;;;;;;5.84;62.89;100882.28;5109855;28;20383;-75
2023/01/16 07:10:36;;;;;;;28.37;15.70;;;;;;;5.83;62.98;100881.41;5110544;28;20372;-76
2023/01/16 07:13:01;;;;;;;27.27;15.77;;;;;;;5.84;62.49;100871.75;5108958;27;20375;-74
2023/01/16 07:23:53;;;;;;;27.30;15.70;;;;;;;5.81;63.05;100895.69;5109848;28;20577;-76
2023/01/16 07:26:20;;;;;;;31.83;16.48;;;;;;;5.94;62.67;100898.88;5110972;28;20877;-76
2023/01/16 07:28:49;;;;;;;29.98;15.93;;;;;;;6.08;62.01;100902.97;5109217;28;20776;-77
2023/01/16 07:31:15;;;;;;;30.60;16.53;;;;;;;6.17;61.99;100901.34;5110614;28;20831;-75
2023/01/16 07:33:40;;;;;;;30.00;16.73;;;;;;;6.24;61.43;100884.03;5109961;28;20380;-75
2023/01/16 07:36:06;;;;;;;33.00;17.40;;;;;;;6.20;61.76;100867.66;5110595;28;20855;-75
2023/01/16 07:38:31;;;;;;;33.53;18.23;;;;;;;6.07;61.43;100846.06;5110883;28;20376;-78
2023/01/16 07:40:57;;;;;;;36.73;19.03;;;;;;;5.95;61.71;100842.69;5112384;28;20383;-77
2023/01/16 07:43:22;;;;;;;35.67;19.13;;;;;;;5.94;62.36;100820.81;5110705;28;20436;-76
2023/01/16 07:45:52;;;;;;;40.50;19.85;;;;;;;6.01;62.03;100842.16;5110839;28;20379;-77
2023/01/16 07:48:21;;;;;;;39.60;19.67;;;;;;;6.10;61.76;100846.63;5110517;28;20379;-78
2023/01/16 07:50:50;;;;;;;31.23;12.65;;;;;;;6.34;64.08;100841.88;5109709;28;20380;-74
2023/01/16 07:53:16;;;;;;;46.88;16.83;;;;;;;6.73;68.03;100837.41;5108539;28;20379;-74
2023/01/16 07:55:42;;;;;;;37.40;17.73;;;;;;;7.39;69.33;100835.69;5109499;28;20376;-76
2023/01/16 07:58:07;;;;;;;24.58;12.27;;;;;;;7.69;68.50;100834.56;5108246;28;20771;-76
2023/01/16 08:00:33;;;;;;;31.80;17.07;;;;;;;7.12;64.92;100832.03;5110374;28;20384;-78
2023/01/16 08:02:59;;;;;;;36.15;19.08;;;;;;;6.81;63.18;100840.19;5110421;28;20399;-77
2023/01/16 08:05:24;;;;;;;34.60;18.52;;;;;;;6.50;62.73;100818.47;5110233;28;20391;-77
2023/01/16 08:07:50;;;;;;;38.30;19.00;;;;;;;6.50;62.41;100836.91;5110713;28;20466;-78
2023/01/16 08:10:16;;;;;;;35.53;19.23;;;;;;;6.58;62.34;100833.56;5110593;28;20363;-78
2023/01/16 08:12:41;;;;;;;37.90;19.08;;;;;;;6.54;61.54;100830.38;5109598;28;20447;-77
2023/01/16 08:15:07;;;;;;;32.45;17.73;;;;;;;6.42;61.41;100824.44;5113977;28;20899;-76
2023/01/16 08:17:32;;;;;;;29.85;15.07;;;;;;;6.26;61.52;100817.09;5112113;28;20440;-76
2023/01/16 08:19:58;;;;;;;32.00;15.17;;;;;;;6.25;61.67;100819.88;5109663;28;20375;-77
2023/01/16 08:22:23;;;;;;;31.93;15.20;;;;;;;6.20;61.62;100820.28;5110108;28;20847;-77
2023/01/16 08:24:49;;;;;;;26.33;14.80;;;;;;;6.13;61.69;100820.00;5109573;28;20578;-75
2023/01/16 08:27:14;;;;;;;31.00;15.90;;;;;;;6.10;61.80;100836.09;5109756;28;20863;-77
2023/01/16 08:29:40;;;;;;;32.93;16.00;;;;;;;6.15;61.79;100832.22;5109352;28;20396;-77
2023/01/16 08:32:05;;;;;;;31.93;16.37;;;;;;;6.13;61.44;100811.28;5110503;28;20774;-77
2023/01/16 08:34:31;;;;;;;30.27;16.67;;;;;;;6.13;61.33;100816.56;5113415;28;20759;-76
2023/01/16 08:36:56;;;;;;;32.27;17.47;;;;;;;6.03;61.01;100820.97;5110285;28;20379;-76
2023/01/16 08:39:22;;;;;;;33.67;17.97;;;;;;;5.99;61.45;100814.34;5109595;27;20379;-76
2023/01/16 08:52:57;;;;;;;26.70;15.05;;;;;;;5.85;62.15;100810.25;5084530;28;20868;-76
2023/01/16 08:55:22;;;;;;;22.40;12.80;;;;;;;5.84;61.62;100806.81;5109018;28;20704;-76
2023/01/16 08:57:48;;;;;;;25.90;16.13;;;;;;;5.93;61.86;100808.63;5108262;28;20471;-76
2023/01/16 09:00:14;;;;;;;27.90;16.10;;;;;;;5.93;61.32;100803.34;5107864;28;20395;-76
2023/01/16 09:02:39;;;;;;;25.73;14.13;;;;;;;5.83;61.51;100799.88;5109766;28;20375;-76
2023/01/16 09:05:05;;;;;;;28.02;15.18;;;;;;;5.88;61.42;100796.84;5109709;28;20423;-75
2023/01/16 09:07:31;;;;;;;25.02;14.23;;;;;;;6.00;61.17;100787.88;5109820;28;20384;-75
2023/01/16 09:09:56;;;;;;;25.80;13.87;;;;;;;6.11;60.99;100792.19;5110442;28;20960;-77
2023/01/16 09:15:06;;;;;;;22.63;13.55;;;;;;;5.99;60.87;100783.56;5109639;28;20378;-76
2023/01/16 09:17:31;;;;;;;23.42;12.82;;;;;;;5.84;61.00;100782.31;5109239;28;20424;-74
2023/01/16 09:19:57;;;;;;;21.83;12.47;;;;;;;5.63;61.41;100766.63;5110257;28;20403;-76
2023/01/16 09:22:23;;;;;;;23.10;12.87;;;;;;;5.60;61.82;100761.63;5109500;28;20947;-76
2023/01/16 09:24:48;;;;;;;19.45;11.02;;;;;;;5.65;62.13;100760.25;5109523;28;20407;-76
2023/01/16 09:27:14;;;;;;;18.27;11.32;;;;;;;5.81;61.37;100751.81;5109718;28;20406;-77
2023/01/16 09:29:41;;;;;;;20.48;12.13;;;;;;;5.93;61.33;100744.66;5108549;28;20415;-76
2023/01/16 09:32:08;;;;;;;20.50;11.43;;;;;;;6.06;61.11;100752.28;5108713;28;20387;-78
2023/01/16 09:34:35;;;;;;;23.17;12.57;;;;;;;6.09;60.67;100742.31;5109866;28;20372;-75
2023/01/16 09:37:01;;;;;;;22.73;12.60;;;;;;;6.04;60.79;100725.28;5108702;28;20407;-77
2023/01/16 09:39:27;;;;;;;20.52;11.88;;;;;;;5.97;61.19;100713.66;5109842;28;20422;-77
2023/01/16 09:44:48;;;;;;;24.40;12.93;;;;;;;5.93;61.55;100713.06;5108325;28;20806;-76
2023/01/16 09:47:14;;;;;;;22.77;12.65;;;;;;;5.90;61.34;100701.00;5109360;28;20411;-76
2023/01/16 09:49:53;;;;;;;22.95;13.45;;;;;;;5.74;61.63;100692.84;5108459;28;20419;-74
2023/01/16 09:58:36;;;;;;;19.93;11.50;;;;;;;5.76;61.36;100693.53;5109539;28;20799;-75
2023/01/16 10:01:22;;;;;;;18.92;10.98;;;;;;;5.71;61.55;100687.91;5110484;28;20374;-77
2023/01/16 10:03:47;;;;;;;19.63;11.20;;;;;;;5.73;61.53;100667.53;5111470;28;20452;-76
2023/01/16 10:06:28;;;;;;;18.30;11.57;;;;;;;5.68;61.66;100673.19;5113736;28;20479;-76
2023/01/16 10:09:09;;;;;;;19.77;11.65;;;;;;;5.75;61.58;100663.78;5110837;28;20790;-76
2023/01/16 10:11:57;;;;;;;20.27;11.65;;;;;;;5.65;61.22;100655.06;5109896;28;20379;-77
2023/01/16 10:14:44;;;;;;;19.35;11.05;;;;;;;5.41;62.21;100636.28;5110980;28;20370;-76
2023/01/16 10:17:21;;;;;;;20.30;11.93;;;;;;;5.63;61.36;100649.13;5111701;28;20434;-76
2023/01/16 10:20:06;;;;;;;19.40;11.68;;;;;;;5.67;61.22;100641.78;5111244;28;20386;-77
2023/01/16 10:22:39;;;;;;;21.85;12.48;;;;;;;5.69;61.53;100650.34;5119733;28;20431;-76
2023/01/16 10:25:13;;;;;;;18.55;11.43;;;;;;;5.63;61.18;100650.94;5115129;28;20882;-75
2023/01/16 10:27:54;;;;;;;21.48;12.07;;;;;;;5.45;61.82;100642.91;5114274;28;20744;-77
2023/01/16 10:30:30;;;;;;;23.77;13.68;;;;;;;5.49;61.83;100636.38;5114162;28;20408;-75
2023/01/16 10:33:34;;;;;;;21.60;12.23;;;;;;;5.45;62.09;100614.00;5114727;28;20390;-76
2023/01/16 10:36:03;;;;;;;19.08;11.48;;;;;;;5.45;61.63;100617.44;5113983;28;20421;-78
2023/01/16 10:38:43;;;;;;;19.35;11.63;;;;;;;5.29;62.23;100610.09;5114284;28;20779;-77
2023/01/16 10:49:56;;;;;;;20.33;12.38;;;;;;;5.41;62.50;100576.63;5114820;28;20379;-75
2023/01/16 10:52:22;;;;;;;18.70;11.37;;;;;;;5.36;62.40;100577.03;5116514;28;20375;-76
2023/01/16 10:54:48;;;;;;;18.73;11.98;;;;;;;5.30;63.09;100587.28;5114476;28;20372;-77
2023/01/16 10:57:19;;;;;;;18.80;11.02;;;;;;;5.28;62.62;100581.34;5114082;28;20425;-76
2023/01/16 10:59:46;;;;;;;19.00;10.68;;;;;;;5.40;62.18;100593.34;5113790;28;20368;-75
2023/01/16 11:02:30;;;;;;;22.60;16.05;;;;;;;5.47;62.61;100591.00;5114172;28;20391;-77
2023/01/16 11:04:55;;;;;;;22.75;13.52;;;;;;;5.72;61.77;100605.38;5113411;28;20397;-76
2023/01/16 11:07:22;;;;;;;20.93;12.70;;;;;;;5.70;61.89;100595.00;5114093;28;20386;-77
2023/01/16 11:09:47;;;;;;;20.23;13.18;;;;;;;5.64;61.86;100577.16;5113157;28;20835;-78
2023/01/16 11:18:28;;;;;;;24.08;12.88;;;;;;;5.91;61.05;100586.91;5113859;28;20407;-78
2023/01/16 11:20:54;;;;;;;26.73;15.75;;;;;;;6.04;60.83;100578.75;5113962;28;20394;-77
2023/01/16 11:23:23;;;;;;;23.10;13.20;;;;;;;6.04;61.31;100583.19;5113952;28;20403;-76
2023/01/16 11:25:51;;;;;;;28.02;20.52;;;;;;;6.02;61.32;100564.91;5114469;28;20372;-77
2023/01/16 11:28:22;;;;;;;23.13;11.60;;;;;;;5.96;61.32;100562.88;5115161;28;20371;-77
2023/01/16 11:30:51;;;;;;;22.27;11.93;;;;;;;5.81;61.51;100558.97;5115896;28;20395;-77
2023/01/16 11:33:24;;;;;;;22.33;13.02;;;;;;;5.81;61.48;100557.19;5112911;28;20360;-77
2023/01/16 11:35:58;;;;;;;22.15;12.73;;;;;;;5.82;61.60;100548.31;5113230;28;20427;-77
2023/01/16 11:38:26;;;;;;;21.00;10.90;;;;;;;5.62;61.75;100544.91;5114385;28;20368;-77
2023/01/16 11:40:59;;;;;;;23.48;11.95;;;;;;;5.62;62.15;100544.91;5114242;28;20383;-77
2023/01/16 11:46:30;;;;;;;22.98;12.80;;;;;;;5.70;62.23;100515.28;5113593;28;20386;-77
2023/01/16 11:49:11;;;;;;;21.58;12.85;;;;;;;5.69;62.39;100521.50;5113441;28;20379;-76
2023/01/16 11:51:37;;;;;;;22.23;12.27;;;;;;;5.72;62.30;100508.88;5113482;28;20550;-76
2023/01/16 11:54:11;;;;;;;23.98;15.10;;;;;;;5.77;62.31;100505.84;5116800;28;20830;-76
2023/01/16 11:56:36;;;;;;;24.85;14.88;;;;;;;5.87;62.10;100511.06;5113541;28;20379;-76
2023/01/16 11:59:14;;;;;;;28.13;14.57;;;;;;;5.93;61.83;100506.03;5112206;28;20417;-76
2023/01/16 12:04:35;;;;;;;30.48;16.40;;;;;;;6.00;61.79;100485.28;5112752;28;20410;-76
2023/01/16 12:07:13;;;;;;;26.73;14.52;;;;;;;5.94;61.38;100491.09;5113112;28;20379;-75
2023/01/16 12:09:42;;;;;;;36.53;20.08;;;;;;;5.80;62.00;100489.78;5110544;28;20371;-76
2023/01/16 12:15:42;;;;;;;23.10;12.63;;;;;;;5.96;61.92;100485.72;5109122;28;20862;-76
2023/01/16 12:18:37;;;;;;;24.52;13.35;;;;;;;5.95;62.21;100484.84;5113325;28;20378;-76
2023/01/16 12:21:29;;;;;;;27.15;14.55;;;;;;;5.94;61.83;100478.78;5075533;28;20382;-76
2023/01/16 12:24:27;;;;;;;23.15;13.15;;;;;;;5.97;61.73;100472.41;5101556;28;20399;-76
2023/01/16 12:27:12;;;;;;;25.25;14.68;;;;;;;6.07;61.50;100457.41;5110128;28;20395;-75
2023/01/16 12:29:55;;;;;;;25.67;14.23;;;;;;;5.94;61.75;100481.41;5113641;28;20406;-77